ADDS METAR Data INFO
IDs: Format: Raw Decoded Include TAF

Data at: 2054 UTC 26 May 2017

KCPT 262035Z AUTO 20014G20KT 10SM FEW040 32/24 A2980 RMK AO2
KCPT 262015Z AUTO 20017KT 10SM FEW039 33/24 A2980 RMK AO2
KCPT 261955Z AUTO 19013G19KT 10SM FEW039 32/24 A2981 RMK AO2
KCPT 261935Z AUTO 20012G21KT 10SM FEW039 33/24 A2981 RMK AO2
KCPT 261915Z AUTO 20015G22KT 10SM CLR 33/24 A2980 RMK AO2
KCPT 261855Z AUTO 19016G21KT 10SM FEW037 33/24 A2980 RMK AO2
KCPT 261755Z AUTO 21015G23KT 9SM CLR 31/24 A2982 RMK AO2
KCPT 261735Z AUTO 21015G23KT 10SM FEW032 31/24 A2982 RMK AO2
KCPT 261715Z AUTO 21013G22KT 10SM FEW032 31/24 A2983 RMK AO2
KCPT 261655Z AUTO 20015KT 10SM CLR 30/24 A2982 RMK AO2
KCPT 261635Z AUTO 22015G23KT 10SM CLR 30/24 A2982 RMK AO2
KCPT 261615Z AUTO 22016G24KT 10SM FEW029 30/24 A2982 RMK AO2
KCPT 261555Z AUTO 21017G25KT 9SM CLR 30/24 A2981 RMK AO2
KCPT 261535Z AUTO 22014G26KT 9SM CLR 29/24 A2981 RMK AO2
KCPT 261515Z AUTO 22019G26KT 10SM FEW025 29/24 A2981 RMK AO2
KCPT 261455Z AUTO 22014G24KT 10SM CLR 28/23 A2981 RMK AO2
KCPT 261435Z AUTO 20019KT 9SM CLR 27/23 A2981 RMK AO2
KCPT 261415Z AUTO 20017G27KT 10SM CLR 27/23 A2980 RMK AO2
KCPT 261355Z AUTO 21013G23KT 9SM CLR 26/23 A2980 RMK AO2
KCPT 261335Z AUTO 21014KT 10SM CLR 25/23 A2980 RMK AO2
KCPT 261315Z AUTO 20016G22KT 10SM CLR 25/23 A2979 RMK AO2
KCPT 261255Z AUTO 20015KT 10SM CLR 24/23 A2979 RMK AO2
KCPT 261235Z AUTO 20012G19KT 10SM CLR 24/23 A2978 RMK AO2
KCPT 261215Z AUTO 20012KT 9SM CLR 24/23 A2978 RMK AO2
KCPT 261155Z AUTO 20011KT 10SM CLR 23/22 A2977 RMK AO2
KCPT 261135Z AUTO 20011KT 10SM CLR 23/22 A2977 RMK AO2
KCPT 261115Z AUTO 20014G19KT 10SM CLR 23/23 A2976 RMK AO2
KCPT 261055Z AUTO 20013KT 10SM SCT018 23/23 A2976 RMK AO2
KCPT 261035Z AUTO 20010G17KT 10SM SCT018 23/23 A2975 RMK AO2
KCPT 261015Z AUTO 20012KT 10SM SCT017 23/23 A2975 RMK AO2
KCPT 260955Z AUTO 20011G16KT 10SM BKN017 23/23 A2975 RMK AO2
KCPT 260935Z AUTO 20013G19KT 10SM FEW016 23/22 A2974 RMK AO2
KCPT 260915Z AUTO 20014G21KT 10SM SCT016 23/22 A2973 RMK AO2
KCPT 260855Z AUTO 20012G19KT 10SM BKN016 23/22 A2974 RMK AO2
KCPT 260755Z AUTO 18013KT 10SM CLR 23/22 A2972 RMK AO2
KCPT 260735Z AUTO 19013KT 10SM CLR 23/22 A2972 RMK AO2
KCPT 260715Z AUTO 19012KT 10SM CLR 23/21 A2971 RMK AO2
KCPT 260655Z AUTO 19012G17KT 10SM CLR 23/21 A2971 RMK AO2
KCPT 260635Z AUTO 10SM CLR RMK AO2 PNO PWINO TSNO
KCPT 260615Z AUTO 19011G19KT 10SM CLR 24/21 A2971 RMK AO2
KCPT 260555Z AUTO 19014G23KT 10SM CLR 24/21 A2971 RMK AO2
KCPT 260535Z AUTO 19015KT 10SM CLR 24/20 A2971 RMK AO2
KCPT 260515Z AUTO 19012G19KT 10SM CLR 25/20 A2970 RMK AO2
KCPT 260455Z AUTO 18015KT 10SM 25/20 A2970 RMK AO2
KCPT 260435Z AUTO 18012KT 10SM A2969 RMK AO2
KCPT 260415Z AUTO 10.92000011G17KT 10SM CLR 25/19 A2969 RMK AO2
KCPT 260355Z AUTO 18013G18KT 10SM CLR 26/18 A2968 RMK AO2
KCPT 260335Z AUTO 18013G19KT 10SM CLR 26/18 A2967 RMK AO2
KCPT 260315Z AUTO 18010G19KT 10SM CLR 27/18 A2966 RMK AO2
KCPT 260255Z AUTO 18012KT 10SM CLR 27/18 A2965 RMK AO2
KCPT 260235Z AUTO 17012G17KT 10SM CLR 27/18 A2965 RMK AO2
KCPT 260215Z AUTO 17012KT 10SM CLR 28/18 A2964 RMK AO2
KCPT 260155Z AUTO 16011KT 10SM CLR 28/18 A2964 RMK AO2
KCPT 260135Z AUTO 17010G16KT 10SM CLR 28/17 A2964 RMK AO2
KCPT 260115Z AUTO 18011G18KT 10SM CLR 29/17 A2963 RMK AO2
KCPT 260055Z AUTO 17012KT 10SM 29/17 A2963 RMK AO2
KCPT 260035Z AUTO 18013G20KT 10SM CLR 30/17 A2963 RMK AO2
KCPT 260015Z AUTO 19017KT 10SM CLR 31/17 A2963 RMK AO2
KCPT 252355Z AUTO 19015G22KT 10SM CLR 31/16 A2962 RMK AO2
KCPT 252335Z AUTO 18014G21KT 10SM CLR 31/16 A2963 RMK AO2
KCPT 252315Z AUTO 19017G24KT 10SM CLR 32/16 A2963 RMK AO2
KCPT 252255Z AUTO 19015G23KT 10SM 32/16 A2963 RMK AO2
KCPT 252235Z AUTO 19015G26KT 10SM CLR 33/15 A2963 RMK AO2
KCPT 252215Z AUTO 19019G24KT 10SM CLR 33/16 A2963 RMK AO2
KCPT 252155Z AUTO 19020G30KT 10SM CLR 33/15 A2964 RMK AO2
KCPT 252135Z AUTO 19021G30KT 10SM CLR 33/15 A2964 RMK AO2
KCPT 252115Z AUTO 19017G28KT 10SM CLR 31/14 A2964 RMK AO2
KCPT 252055Z AUTO 19016G23KT 10SM CLR 31/14 A2965 RMK AO2
KCPT 251915Z AUTO 19019G25KT 10SM CLR 31/13 A2968 RMK AO2
KCPT 251855Z AUTO 18016G28KT 10SM 31/13 A2968 RMK AO2
KCPT 251835Z AUTO 20017G28KT 10SM -RA CLR 30/12 A2969 RMK AO2
KCPT 251815Z AUTO 19018KT 10SM -RA CLR 30/13 A2969 RMK AO2
KCPT 251755Z AUTO 20018G26KT 10SM -DZ CLR 30/12 A2970 RMK AO2
KCPT 251735Z AUTO 19020KT 10SM -RA CLR 29/12 A2971 RMK AO2
KCPT 251715Z AUTO 18017G24KT 10SM CLR 29/12 A2972 RMK AO2
KCPT 251655Z AUTO 19020G28KT 10SM -RA CLR 28/12 A2972 RMK AO2
KCPT 251635Z AUTO 20015G24KT 10SM -RA CLR 28/13 A2972 RMK AO2
KCPT 251615Z AUTO 20010G18KT 10SM -RA CLR 27/14 A2973 RMK AO2
KCPT 251555Z AUTO 20012G20KT 10SM CLR 26/14 A2973 RMK AO2
KCPT 251535Z AUTO 19013G18KT 10SM CLR 25/14 A2973 RMK AO2
KCPT 251515Z AUTO 21014G19KT 10SM CLR 24/13 A2973 RMK AO2
KCPT 251455Z AUTO 20013G21KT 10SM CLR 23/13 A2973 RMK AO2
KCPT 251435Z AUTO 21013G20KT 10SM CLR 22/13 A2973 RMK AO2
KCPT 251415Z AUTO 18014KT 10SM CLR 22/13 A2972 RMK AO2
KCPT 251355Z AUTO 19011G16KT 10SM CLR 21/13 A2972 RMK AO2
KCPT 251335Z AUTO 18012KT 10SM CLR 20/13 A2973 RMK AO2
KCPT 251315Z AUTO 17009G15KT 10SM CLR 19/13 A2972 RMK AO2
KCPT 251255Z AUTO 17009G16KT 10SM CLR 18/13 A2972 RMK AO2
KCPT 251235Z AUTO 17008G13KT 10SM CLR 17/13 A2972 RMK AO2
KCPT 251215Z AUTO 17007KT 10SM CLR 16/13 A2973 RMK AO2
KCPT 251155Z AUTO 16008KT 10SM CLR 15/13 A2972 RMK AO2
KCPT 251135Z AUTO 17008KT 10SM CLR 15/12 A2972 RMK AO2
KCPT 251115Z AUTO 16009KT 10SM CLR 15/12 A2972 RMK AO2
KCPT 251055Z AUTO 16008KT 10SM CLR 15/12 A2971 RMK AO2
KCPT 251035Z AUTO 15007KT 10SM CLR 15/12 A2970 RMK AO2
KCPT 251015Z AUTO 14008KT 10SM CLR 15/12 A2970 RMK AO2
KCPT 250955Z AUTO 14008KT 10SM CLR 15/12 A2970 RMK AO2


Page loaded:  20:54 UTC  |   01:54 PM Pacific  |   02:54 PM Mountain  |   03:54 PM Central  |   04:54 PM Eastern

 

ADVISORIES

FORECASTS

FORECASTS

OBSERVATIONS

USER TOOLS

ABOUT US